Time;durP1;ratioP1;P1;durP2;ratioP2;P2;SDS_P1;SDS_P2;PMS_P1;PMS_P2;Temp;Humidity;BMP_temperature;BMP_pressure;BME280_temperature;BME280_humidity;BME280_pressure;Samples;Min_cycle;Max_cycle;Signal;HPM_P1;HPM_P2
2022/10/06 00:02:15;;;;;;;17.55;8.75;;;;;;;10.43;67.94;96497.56;5051843;28;20119;-76
2022/10/06 00:04:40;;;;;;;17.98;8.10;;;;;;;9.82;67.95;96408.22;5050486;28;20025;-76
2022/10/06 00:07:06;;;;;;;21.77;8.10;;;;;;;10.25;68.23;96479.22;5051904;28;20041;-76
2022/10/06 00:09:31;;;;;;;14.15;7.53;;;;;;;9.87;68.22;96434.78;5051364;28;20112;-76
2022/10/06 00:11:57;;;;;;;13.63;7.63;;;;;;;9.76;67.68;96399.38;5051623;28;20097;-76
2022/10/06 00:14:24;;;;;;;16.58;7.80;;;;;;;9.96;68.04;96438.69;5050473;28;20037;-76
2022/10/06 00:16:49;;;;;;;17.00;7.75;;;;;;;10.29;67.83;96493.63;5050905;28;20037;-76
2022/10/06 00:19:14;;;;;;;20.00;7.65;;;;;;;9.81;68.20;96418.00;5051500;28;20506;-76
2022/10/06 00:21:40;;;;;;;18.13;7.40;;;;;;;10.29;68.15;96497.09;5051491;28;20047;-76
2022/10/06 00:24:05;;;;;;;15.90;8.07;;;;;;;10.06;67.91;96454.75;5050275;28;20032;-75
2022/10/06 00:26:31;;;;;;;19.73;8.68;;;;;;;9.88;67.67;96421.31;5049195;28;20039;-76
2022/10/06 00:28:56;;;;;;;15.20;7.15;;;;;;;9.66;68.24;96399.19;5051291;28;20108;-76
2022/10/06 00:31:22;;;;;;;17.30;7.80;;;;;;;10.23;67.61;96484.75;5050049;28;20427;-76
2022/10/06 00:33:48;;;;;;;15.10;7.35;;;;;;;10.21;68.58;96486.06;5050185;28;20043;-76
2022/10/06 00:36:14;;;;;;;13.32;6.88;;;;;;;10.07;68.62;96461.66;5050461;28;20041;-75
2022/10/06 00:38:39;;;;;;;17.73;7.68;;;;;;;10.18;68.56;96475.94;5050050;28;20048;-75
2022/10/06 00:41:05;;;;;;;17.65;7.57;;;;;;;10.04;68.59;96455.00;5051095;28;20029;-76
2022/10/06 00:43:42;;;;;;;18.52;7.53;;;;;;;10.16;68.74;96476.13;5051361;28;20037;-76
2022/10/06 00:46:14;;;;;;;20.02;7.63;;;;;;;9.68;68.92;96405.88;5050014;28;20033;-76
2022/10/06 00:48:39;;;;;;;;;;;;;;;10.12;68.10;96468.91;5051727;28;20064;-75
2022/10/06 00:51:05;;;;;;;14.65;6.53;;;;;;;9.72;68.39;96408.03;5051240;28;19916;-76
2022/10/06 00:53:31;;;;;;;11.73;7.38;;;;;;;9.58;68.93;96402.22;5049633;28;20140;-76
2022/10/06 00:55:57;;;;;;;19.45;6.72;;;;;;;9.54;68.36;96399.22;5049669;28;20479;-76
2022/10/06 00:58:23;;;;;;;14.75;6.57;;;;;;;9.96;68.54;96452.72;5049888;28;20049;-76
2022/10/06 01:00:53;;;;;;;21.95;7.32;;;;;;;9.95;68.20;96456.41;5049313;28;20414;-76
2022/10/06 01:03:31;;;;;;;16.48;7.45;;;;;;;9.93;68.56;96444.44;5051456;28;20447;-76
2022/10/06 01:05:58;;;;;;;16.15;7.63;;;;;;;9.50;68.82;96394.66;5050533;28;20044;-76
2022/10/06 01:08:24;;;;;;;18.00;7.55;;;;;;;9.44;68.69;96377.09;5051238;28;20080;-76
2022/10/06 01:10:50;;;;;;;23.85;8.10;;;;;;;9.87;68.80;96451.50;5049390;28;20036;-76
2022/10/06 01:13:17;;;;;;;12.18;7.50;;;;;;;9.55;68.14;96398.19;5050058;28;20418;-75
2022/10/06 01:15:58;;;;;;;20.50;7.63;;;;;;;9.85;68.93;96437.69;5050657;28;20078;-76
2022/10/06 01:18:25;;;;;;;;;;;;;;;9.84;68.32;96433.41;5051576;28;20106;-76
2022/10/06 01:21:02;;;;;;;11.77;7.03;;;;;;;9.84;69.08;96433.41;5049769;28;19917;-76
2022/10/06 01:23:30;;;;;;;16.90;7.60;;;;;;;9.64;68.71;96412.69;5049421;28;20045;-76
2022/10/06 01:25:58;;;;;;;10.73;6.68;;;;;;;9.48;69.10;96383.50;5051076;28;20037;-76
2022/10/06 01:28:23;;;;;;;15.07;7.75;;;;;;;9.78;69.22;96433.56;5053165;28;20836;-76
2022/10/06 01:30:52;;;;;;;17.88;7.50;;;;;;;9.03;68.65;96310.13;5055237;28;20040;-76
2022/10/06 01:33:19;;;;;;;11.38;6.88;;;;;;;9.76;69.20;96435.66;5055306;28;20032;-76
2022/10/06 01:35:48;;;;;;;14.35;7.30;;;;;;;9.41;68.64;96373.06;5054449;28;20041;-76
2022/10/06 01:38:14;;;;;;;13.43;6.72;;;;;;;9.80;69.26;96434.94;5054681;28;20546;-76
2022/10/06 01:40:39;;;;;;;16.35;7.10;;;;;;;9.78;68.73;96434.38;5051978;28;20036;-76
2022/10/06 01:43:05;;;;;;;12.77;7.15;;;;;;;9.47;68.74;96371.28;5052193;28;20059;-75
2022/10/06 01:45:30;;;;;;;14.48;7.38;;;;;;;9.45;68.17;96373.41;5051831;28;20502;-76
2022/10/06 01:47:56;;;;;;;16.25;6.80;;;;;;;9.67;68.62;96409.56;5052136;28;20037;-76
2022/10/06 01:50:22;;;;;;;14.00;6.82;;;;;;;9.59;68.79;96387.94;5053815;28;20047;-76
2022/10/06 01:52:47;;;;;;;14.60;7.22;;;;;;;9.40;68.58;96358.19;5051910;28;20053;-76
2022/10/06 01:55:13;;;;;;;15.65;7.22;;;;;;;9.47;68.33;96373.94;5053634;28;20029;-76
2022/10/06 01:57:42;;;;;;;17.95;7.68;;;;;;;9.31;68.13;96356.19;5052879;28;20086;-76
2022/10/06 02:00:09;;;;;;;13.23;7.00;;;;;;;9.34;68.54;96364.44;5053618;28;20036;-76
2022/10/06 02:02:35;;;;;;;12.60;6.90;;;;;;;9.20;68.56;96347.25;5052025;28;20491;-76
2022/10/06 02:05:00;;;;;;;17.63;7.30;;;;;;;9.35;68.35;96381.94;5053970;28;20036;-76
2022/10/06 02:07:26;;;;;;;13.57;7.90;;;;;;;9.66;68.53;96433.63;5051573;28;20025;-76
2022/10/06 02:09:51;;;;;;;20.85;7.75;;;;;;;9.24;69.08;96383.59;5051965;28;20040;-76
2022/10/06 02:12:16;;;;;;;16.00;8.10;;;;;;;9.64;68.82;96428.56;5052535;28;20721;-76
2022/10/06 02:14:42;;;;;;;21.80;8.60;;;;;;;9.66;68.62;96430.97;5053192;28;20134;-76
2022/10/06 02:17:08;;;;;;;17.33;8.00;;;;;;;9.26;67.88;96362.97;5051374;28;20459;-76
2022/10/06 02:19:34;;;;;;;19.38;8.38;;;;;;;9.22;68.42;96371.63;5051199;28;20092;-76
2022/10/06 02:22:00;;;;;;;19.55;8.20;;;;;;;9.30;68.56;96392.44;5050804;28;20120;-74
2022/10/06 02:24:25;;;;;;;19.58;9.27;;;;;;;9.52;68.55;96424.38;5052383;28;20103;-75
2022/10/06 02:26:52;;;;;;;21.02;7.82;;;;;;;9.49;68.43;96422.97;5051331;28;20029;-75
2022/10/06 02:29:19;;;;;;;17.67;9.00;;;;;;;9.46;68.84;96420.03;5052718;28;20021;-75
2022/10/06 02:31:44;;;;;;;20.55;8.82;;;;;;;9.46;69.05;96420.78;5052773;28;20029;-75
2022/10/06 02:34:10;;;;;;;18.08;7.85;;;;;;;9.04;68.98;96371.81;5050907;28;20033;-75
2022/10/06 02:36:35;;;;;;;18.67;8.50;;;;;;;9.07;69.24;96366.06;5052797;28;20063;-75
2022/10/06 02:39:01;;;;;;;17.08;8.15;;;;;;;9.12;69.17;96374.88;5051826;28;20071;-76
2022/10/06 02:41:26;;;;;;;21.38;8.65;;;;;;;8.89;69.20;96348.50;5053256;28;20383;-75
2022/10/06 02:43:54;;;;;;;16.92;8.88;;;;;;;9.39;68.79;96425.44;5052423;28;20037;-75
2022/10/06 02:46:19;;;;;;;16.30;8.50;;;;;;;9.35;69.77;96429.59;5052471;28;20033;-76
2022/10/06 02:48:45;;;;;;;21.13;9.60;;;;;;;9.11;69.41;96389.16;5053098;28;20094;-76
2022/10/06 02:51:14;;;;;;;21.30;8.93;;;;;;;9.43;69.23;96431.06;5052580;28;20025;-76
2022/10/06 02:53:42;;;;;;;24.85;9.80;;;;;;;9.28;69.30;96413.84;5051506;28;20641;-76
2022/10/06 02:56:29;;;;;;;29.98;10.07;;;;;;;9.19;69.15;96388.78;5050894;28;20048;-76
2022/10/06 02:58:54;;;;;;;28.50;9.68;;;;;;;9.11;69.39;96383.84;5051296;28;20044;-76
2022/10/06 03:01:22;;;;;;;21.50;9.65;;;;;;;9.41;69.57;96438.44;5052067;28;20522;-76
2022/10/06 03:03:49;;;;;;;25.35;10.25;;;;;;;9.27;69.28;96414.09;5051675;28;20029;-76
2022/10/06 03:06:21;;;;;;;22.70;9.52;;;;;;;8.79;69.11;96330.56;5050411;28;20514;-76
2022/10/06 03:08:49;;;;;;;18.10;9.32;;;;;;;8.87;69.28;96350.56;5050746;28;20090;-76
2022/10/06 03:11:15;;;;;;;18.67;10.20;;;;;;;9.12;68.91;96396.06;5050539;28;20031;-76
2022/10/06 03:13:40;;;;;;;19.70;8.43;;;;;;;8.84;69.85;96351.03;5050414;28;20491;-76
2022/10/06 03:16:18;;;;;;;21.83;8.85;;;;;;;8.83;69.36;96349.44;5050168;28;20040;-76
2022/10/06 03:18:45;;;;;;;19.35;8.82;;;;;;;9.34;69.03;96422.69;5052482;28;20032;-76
2022/10/06 03:21:14;;;;;;;15.60;8.60;;;;;;;8.99;69.08;96384.94;5050052;28;20071;-76
2022/10/06 03:23:41;;;;;;;19.90;8.63;;;;;;;8.60;69.78;96320.38;5050373;28;20572;-76
2022/10/06 03:26:07;;;;;;;21.40;9.35;;;;;;;9.10;69.74;96394.69;5049675;28;20021;-76
2022/10/06 03:28:33;;;;;;;17.55;8.98;;;;;;;9.33;69.41;96431.66;5050863;28;20040;-76
2022/10/06 03:31:03;;;;;;;20.90;9.18;;;;;;;9.14;69.11;96401.94;5051828;28;20032;-76
2022/10/06 03:33:28;;;;;;;26.85;10.65;;;;;;;8.81;69.83;96356.78;5052232;28;20119;-76
2022/10/06 03:36:02;;;;;;;21.75;9.75;;;;;;;9.30;69.30;96424.22;5049809;28;20151;-76
2022/10/06 03:38:29;;;;;;;26.83;10.25;;;;;;;9.27;69.30;96428.13;5051847;28;20033;-76
2022/10/06 03:41:16;;;;;;;20.30;10.48;;;;;;;8.79;69.68;96343.78;5051434;28;20107;-76
2022/10/06 03:43:43;;;;;;;22.35;10.30;;;;;;;8.40;69.67;96281.09;5050334;28;20033;-76
2022/10/06 03:46:11;;;;;;;20.67;10.80;;;;;;;9.30;70.07;96429.50;5049152;28;20174;-76
2022/10/06 03:48:37;;;;;;;28.58;10.93;;;;;;;9.14;70.04;96399.28;5051784;28;20420;-76
2022/10/06 03:51:10;;;;;;;28.20;11.40;;;;;;;9.27;69.51;96417.53;5050278;28;20033;-76
2022/10/06 03:53:36;;;;;;;21.10;9.95;;;;;;;8.90;69.56;96365.97;5051650;28;20045;-76
2022/10/06 03:56:07;;;;;;;20.10;9.85;;;;;;;9.24;69.78;96425.94;5050865;28;20033;-76
2022/10/06 03:58:38;;;;;;;18.63;8.93;;;;;;;9.21;69.59;96415.03;5049240;28;20524;-76
2022/10/06 04:01:06;;;;;;;25.38;9.60;;;;;;;9.27;69.71;96422.03;5044548;28;20487;-76
2022/10/06 04:03:32;;;;;;;28.05;9.55;;;;;;;9.25;69.85;96418.78;5048998;28;20033;-76
2022/10/06 04:05:59;;;;;;;30.98;9.90;;;;;;;9.26;69.73;96415.91;5050824;28;20129;-76
2022/10/06 04:08:26;;;;;;;25.38;9.70;;;;;;;9.25;69.79;96416.16;5050095;28;20040;-76
2022/10/06 04:10:52;;;;;;;22.63;10.07;;;;;;;9.15;69.46;96397.44;5048138;28;20033;-77
2022/10/06 04:13:19;;;;;;;24.55;9.77;;;;;;;9.06;68.82;96388.25;5036683;28;20032;-76
2022/10/06 04:15:45;;;;;;;24.80;10.68;;;;;;;9.02;69.05;96382.63;5038898;28;20034;-76
2022/10/06 04:18:11;;;;;;;17.67;9.20;;;;;;;8.99;69.23;96383.09;5043386;28;20479;-78
2022/10/06 04:20:38;;;;;;;19.95;8.63;;;;;;;8.42;69.20;96337.97;5041395;28;20098;-78
2022/10/06 04:23:04;;;;;;;33.47;9.02;;;;;;;7.83;69.84;96238.63;5035591;28;20076;-78
2022/10/06 04:25:31;;;;;;;14.48;7.60;;;;;;;8.35;69.63;96316.16;5036008;28;20025;-77
2022/10/06 04:27:56;;;;;;;15.32;7.97;;;;;;;8.52;69.90;96351.44;5031718;28;20029;-77
2022/10/06 04:30:23;;;;;;;22.63;8.57;;;;;;;8.89;69.42;96390.81;5035826;28;20080;-78
2022/10/06 04:32:48;;;;;;;20.85;7.82;;;;;;;8.83;69.68;96389.09;5030677;28;20041;-77
2022/10/06 04:35:15;;;;;;;32.88;10.18;;;;;;;8.74;69.49;96385.19;5033478;28;20039;-77
2022/10/06 04:37:40;;;;;;;15.95;7.78;;;;;;;8.94;70.16;96427.94;5031498;28;20033;-78
2022/10/06 04:40:06;;;;;;;15.90;8.23;;;;;;;8.76;70.31;96431.56;5041696;28;20037;-79
2022/10/06 04:42:31;;;;;;;24.25;8.77;;;;;;;8.70;70.52;96427.16;5041561;28;20025;-78
2022/10/06 04:44:57;;;;;;;16.27;9.18;;;;;;;8.55;70.35;96381.06;5038041;28;20154;-79
2022/10/06 04:47:22;;;;;;;25.45;10.52;;;;;;;8.54;69.74;96367.06;5038796;28;20366;-79
2022/10/06 04:49:48;;;;;;;20.17;9.40;;;;;;;8.38;70.41;96352.72;5041396;28;20064;-79
2022/10/06 04:52:13;;;;;;;19.02;9.05;;;;;;;8.52;70.06;96367.31;5039001;28;20465;-78
2022/10/06 04:54:38;;;;;;;19.83;9.07;;;;;;;8.50;69.72;96364.06;5037636;28;20057;-78
2022/10/06 04:57:04;;;;;;;21.90;9.45;;;;;;;8.99;70.07;96443.16;5035162;28;20059;-77
2022/10/06 05:02:14;;;;;;;16.35;8.93;;;;;;;8.62;70.38;96385.19;5035615;28;20060;-78
2022/10/06 05:04:39;;;;;;;22.08;8.98;;;;;;;8.99;70.14;96441.31;5025614;28;20422;-78
2022/10/06 05:07:06;;;;;;;17.63;9.43;;;;;;;8.40;69.97;96341.88;5032937;28;20182;-78
2022/10/06 05:09:31;;;;;;;20.75;8.73;;;;;;;8.91;70.20;96433.72;5032764;28;20805;-78
2022/10/06 05:11:58;;;;;;;27.23;9.07;;;;;;;9.05;69.95;96450.16;5066345;28;20045;-82
2022/10/06 05:14:24;;;;;;;13.85;7.70;;;;;;;8.64;70.13;96377.84;5030395;28;20099;-80
2022/10/06 05:16:49;;;;;;;20.23;8.30;;;;;;;8.48;70.55;96354.75;5030381;28;20041;-80
2022/10/06 05:19:15;;;;;;;30.33;8.60;;;;;;;8.38;70.18;96334.22;5029023;28;20041;-81
2022/10/06 05:21:40;;;;;;;25.55;8.55;;;;;;;8.64;70.41;96377.84;5031015;28;20175;-81
2022/10/06 05:24:06;;;;;;;22.83;11.00;;;;;;;8.60;70.87;96362.69;5027757;28;20033;-81
2022/10/06 05:26:33;;;;;;;24.02;8.57;;;;;;;8.44;70.99;96332.47;5029991;28;20036;-80
2022/10/06 05:28:59;;;;;;;25.75;8.75;;;;;;;8.60;70.75;96358.22;5028335;28;20524;-82
2022/10/06 05:31:30;;;;;;;17.85;7.78;;;;;;;8.59;70.88;96348.66;5029392;28;20033;-82
2022/10/06 05:33:57;;;;;;;16.88;7.78;;;;;;;8.81;70.29;96383.25;5033488;28;20033;-79
2022/10/06 05:36:28;;;;;;;16.58;8.23;;;;;;;9.29;70.46;96444.59;5033601;28;20045;-82
2022/10/06 05:38:55;;;;;;;17.15;8.48;;;;;;;8.95;70.43;96379.28;5037501;28;20539;-82
2022/10/06 05:41:22;;;;;;;18.75;7.85;;;;;;;8.65;70.43;96328.41;5028700;28;20081;-81
2022/10/06 05:43:49;;;;;;;23.77;8.18;;;;;;;9.45;70.43;96442.25;5035516;28;20045;-81
2022/10/06 05:46:23;;;;;;;21.88;7.40;;;;;;;9.49;70.58;96446.00;5032954;28;20112;-81
2022/10/06 05:48:54;;;;;;;19.50;7.38;;;;;;;9.53;69.72;96450.63;5029632;28;20040;-82
2022/10/06 05:51:22;;;;;;;18.42;7.68;;;;;;;9.60;69.72;96438.03;5033743;28;20705;-81
2022/10/06 05:53:48;;;;;;;18.40;7.68;;;;;;;9.57;69.49;96430.56;5033443;28;20061;-82
2022/10/06 05:56:19;;;;;;;14.90;7.80;;;;;;;9.53;69.45;96424.13;5035861;28;20047;-81
2022/10/06 05:58:47;;;;;;;14.30;8.15;;;;;;;9.30;69.31;96371.28;5032069;28;20418;-81
2022/10/06 06:01:28;;;;;;;23.95;8.52;;;;;;;9.85;69.21;96461.53;5025203;28;20075;-81
2022/10/06 06:03:59;;;;;;;16.75;7.20;;;;;;;9.35;68.63;96389.06;5028052;28;20055;-81
2022/10/06 06:06:28;;;;;;;13.67;7.17;;;;;;;9.94;68.41;96459.31;5057142;28;20052;-81
2022/10/06 06:09:05;;;;;;;19.15;6.78;;;;;;;9.92;67.31;96459.53;5026852;28;20029;-77
2022/10/06 06:11:31;;;;;;;23.45;7.60;;;;;;;9.41;67.04;96357.16;5026204;28;20116;-83
2022/10/06 06:14:04;;;;;;;16.25;6.53;;;;;;;9.35;66.22;96344.06;5023283;28;20032;-81
2022/10/06 06:16:29;;;;;;;15.65;7.28;;;;;;;9.68;65.84;96413.81;5035509;28;20145;-77
2022/10/06 06:18:56;;;;;;;34.80;12.85;;;;;;;9.00;68.31;96355.56;5031809;28;20037;-78
2022/10/06 06:21:21;;;;;;;35.90;14.00;;;;;;;9.17;67.88;96356.44;5028260;28;20126;-78
2022/10/06 06:23:48;;;;;;;24.75;12.73;;;;;;;9.75;67.67;96429.56;5030653;28;20037;-79
2022/10/06 06:26:23;;;;;;;32.53;12.38;;;;;;;9.89;67.70;96444.13;5031629;28;20035;-78
2022/10/06 06:28:49;;;;;;;35.58;12.18;;;;;;;9.83;67.53;96428.38;5031200;28;20037;-78
2022/10/06 06:31:21;;;;;;;26.02;12.60;;;;;;;9.80;66.77;96405.81;5013156;28;20406;-77
2022/10/06 06:33:49;;;;;;;25.90;11.85;;;;;;;10.17;66.24;96463.69;5027916;28;20029;-78
2022/10/06 06:36:24;;;;;;;41.35;11.23;;;;;;;10.19;66.50;96464.28;5030069;28;20049;-78
2022/10/06 06:38:51;;;;;;;30.00;12.27;;;;;;;10.21;66.07;96462.19;5032964;28;20163;-78
2022/10/06 06:41:38;;;;;;;23.77;12.05;;;;;;;10.30;66.02;96460.75;5034187;28;20355;-78
2022/10/06 06:44:06;;;;;;;40.20;13.85;;;;;;;10.05;65.92;96432.75;5037894;28;20033;-78
2022/10/06 06:46:31;;;;;;;28.63;12.90;;;;;;;10.16;65.21;96440.84;5036350;28;20403;-78
2022/10/06 06:49:03;;;;;;;40.78;12.85;;;;;;;10.35;66.40;96468.81;5029448;28;20047;-80
2022/10/06 06:51:36;;;;;;;25.33;13.35;;;;;;;10.41;65.95;96457.22;5033690;28;20033;-83
2022/10/06 06:54:03;;;;;;;31.42;11.88;;;;;;;10.44;66.03;96462.06;5025552;28;20061;-81
2022/10/06 06:56:33;;;;;;;29.58;11.27;;;;;;;10.35;66.09;96455.53;5031182;28;20072;-80
2022/10/06 06:59:00;;;;;;;34.88;12.38;;;;;;;10.44;66.02;96456.75;5031981;28;20108;-83
2022/10/06 07:01:27;;;;;;;21.90;11.05;;;;;;;10.03;65.86;96397.72;5034859;28;20033;-80
2022/10/06 07:03:57;;;;;;;38.33;11.75;;;;;;;10.53;65.54;96449.19;5026513;28;20083;-81
2022/10/06 07:06:26;;;;;;;23.45;10.23;;;;;;;10.55;65.44;96453.19;5027151;28;20075;-79
2022/10/06 07:08:53;;;;;;;20.80;10.00;;;;;;;10.56;65.31;96454.00;5031398;28;20074;-79
2022/10/06 07:11:24;;;;;;;22.10;10.38;;;;;;;10.58;65.80;96455.38;5025002;28;20064;-80
2022/10/06 07:13:52;;;;;;;21.08;10.27;;;;;;;9.37;65.27;96258.09;5031104;28;20032;-80
2022/10/06 07:27:27;;;;;;;22.40;9.50;;;;;;;10.69;64.90;96435.09;5033436;28;20047;-80
2022/10/06 07:29:53;;;;;;;23.48;10.90;;;;;;;10.27;65.59;96382.50;5034758;28;20662;-81
2022/10/06 07:32:20;;;;;;;23.52;10.02;;;;;;;10.74;65.61;96443.94;5035129;28;20050;-81
2022/10/06 07:34:50;;;;;;;30.90;11.38;;;;;;;10.76;65.14;96433.88;5062826;28;20040;-80
2022/10/06 07:37:16;;;;;;;24.48;11.30;;;;;;;10.08;64.86;96305.03;5037073;28;20174;-81
2022/10/06 07:39:43;;;;;;;26.80;12.32;;;;;;;10.67;66.10;96406.19;5035184;28;20124;-81
2022/10/06 07:42:12;;;;;;;31.58;12.40;;;;;;;10.45;66.08;96365.53;5016664;28;20147;-81
2022/10/06 07:44:38;;;;;;;30.05;11.70;;;;;;;10.20;66.10;96326.19;5035443;28;20028;-81
2022/10/06 07:47:04;;;;;;;40.80;12.98;;;;;;;10.77;65.74;96402.84;5033360;28;20024;-80
2022/10/06 07:49:30;;;;;;;36.17;13.05;;;;;;;10.44;65.61;96350.66;5035639;28;20575;-80
2022/10/06 07:51:57;;;;;;;40.63;13.45;;;;;;;11.10;65.83;96439.13;5034219;28;20041;-82
2022/10/06 07:54:24;;;;;;;24.77;13.90;;;;;;;10.93;65.83;96404.66;5029027;28;20047;-81
2022/10/06 07:56:50;;;;;;;43.75;17.17;;;;;;;11.01;65.48;96400.78;5027720;28;20025;-82
2022/10/06 07:59:15;;;;;;;32.20;15.00;;;;;;;11.04;65.90;96408.25;5026239;28;20033;-82
2022/10/06 08:01:43;;;;;;;28.00;13.85;;;;;;;10.25;65.49;96272.44;5027672;28;20025;-81
2022/10/06 08:04:08;;;;;;;27.65;12.75;;;;;;;10.92;65.44;96379.16;5030288;28;20033;-80
2022/10/06 08:06:34;;;;;;;21.48;11.75;;;;;;;10.98;64.94;96380.84;5031626;28;20036;-81
2022/10/06 08:09:00;;;;;;;33.10;12.88;;;;;;;11.30;65.25;96434.06;5030057;28;20039;-80
2022/10/06 08:11:26;;;;;;;27.55;13.02;;;;;;;11.29;65.47;96434.34;5034365;28;20226;-80
2022/10/06 08:13:51;;;;;;;28.38;13.35;;;;;;;10.22;65.52;96265.75;5033802;28;20106;-82
2022/10/06 08:16:20;;;;;;;26.70;12.85;;;;;;;10.64;66.08;96324.41;5037492;28;20062;-85
2022/10/06 08:18:52;;;;;;;30.60;12.52;;;;;;;11.42;65.03;96434.75;5035083;28;20673;-82
2022/10/06 08:21:20;;;;;;;33.65;11.45;;;;;;;11.55;64.14;96434.38;5033645;28;20033;-79
2022/10/06 08:23:47;;;;;;;36.20;12.13;;;;;;;11.62;64.52;96428.84;5030020;28;20037;-82
2022/10/06 08:26:15;;;;;;;22.90;11.45;;;;;;;11.18;63.99;96346.56;5036918;28;20029;-84
2022/10/06 08:28:46;;;;;;;24.88;11.90;;;;;;;11.13;64.52;96322.63;5033626;28;20513;-81
2022/10/06 08:31:14;;;;;;;23.25;10.93;;;;;;;11.88;64.10;96416.69;5035759;28;20029;-84
2022/10/06 08:33:42;;;;;;;19.08;9.77;;;;;;;11.18;63.38;96306.75;5038835;28;20047;-83
2022/10/06 08:36:21;;;;;;;15.15;9.73;;;;;;;11.20;62.24;96307.31;5036541;28;20040;-82
2022/10/06 08:38:49;;;;;;;27.17;10.80;;;;;;;11.60;63.17;96367.19;5038202;28;20146;-82
2022/10/06 08:41:43;;;;;;;19.33;10.40;;;;;;;12.00;62.59;96419.97;5036149;28;20025;-79
2022/10/06 08:44:18;;;;;;;18.95;8.95;;;;;;;12.14;63.97;96412.38;5032767;28;20032;-81
2022/10/06 08:47:12;;;;;;;25.27;9.80;;;;;;;11.43;63.21;96276.19;5032915;28;20440;-79
2022/10/06 08:49:43;;;;;;;24.83;11.15;;;;;;;12.33;62.59;96403.78;5032074;28;21396;-78
2022/10/06 08:52:14;;;;;;;21.58;9.80;;;;;;;12.51;62.46;96412.44;5019765;28;20099;-79
2022/10/06 08:54:44;;;;;;;;;;;;;;;12.59;61.91;96410.06;5030790;28;20375;-80
2022/10/06 08:57:21;;;;;;;28.60;9.40;;;;;;;12.20;60.87;96334.25;5035505;28;19928;-79
2022/10/06 08:59:51;;;;;;;21.83;9.77;;;;;;;12.43;61.26;96349.06;5028956;28;20041;-80
2022/10/06 09:02:40;;;;;;;20.25;10.40;;;;;;;12.79;60.91;96390.78;5018529;28;20353;-80
2022/10/06 09:05:10;;;;;;;19.45;9.60;;;;;;;12.88;60.81;96396.44;5033449;28;20433;-80
2022/10/06 09:07:40;;;;;;;22.35;8.18;;;;;;;12.84;60.41;96379.34;5036665;28;20029;-81
2022/10/06 09:10:24;;;;;;;14.20;8.63;;;;;;;13.12;60.20;96406.38;5035028;28;20037;-80
2022/10/06 09:12:55;;;;;;;14.95;8.05;;;;;;;13.16;59.58;96404.06;5033408;28;20128;-81
2022/10/06 09:15:36;;;;;;;15.20;7.95;;;;;;;12.69;59.17;96319.66;5038393;28;20033;-82
2022/10/06 09:18:12;;;;;;;19.50;6.82;;;;;;;13.30;58.39;96409.69;5037646;28;20036;-82
2022/10/06 09:20:48;;;;;;;17.70;7.13;;;;;;;12.84;58.40;96316.25;5037681;28;20056;-82
2022/10/06 09:23:15;;;;;;;14.07;7.20;;;;;;;13.44;57.82;96400.16;5034188;28;20041;-80
2022/10/06 09:25:43;;;;;;;16.92;8.57;;;;;;;12.72;57.09;96273.91;5026875;28;20025;-81
2022/10/06 09:28:14;;;;;;;12.77;7.63;;;;;;;13.43;55.99;96370.03;5061908;28;20057;-82
2022/10/06 09:30:42;;;;;;;14.40;7.30;;;;;;;13.64;55.66;96386.91;5033247;28;20578;-80
2022/10/06 09:33:17;;;;;;;17.27;7.88;;;;;;;13.73;55.54;96379.97;5029958;28;20091;-82
2022/10/06 09:36:07;;;;;;;15.73;8.88;;;;;;;13.68;54.62;96379.97;5034912;28;20040;-87
2022/10/06 09:38:53;;;;;;;13.63;8.32;;;;;;;13.81;55.08;96370.66;5032226;28;20041;-81
2022/10/06 09:41:27;;;;;;;14.68;8.15;;;;;;;13.91;54.61;96376.00;5034180;28;20025;-84
2022/10/06 09:44:03;;;;;;;14.35;7.57;;;;;;;14.03;54.92;96375.78;5029220;28;20398;-79
2022/10/06 09:46:32;;;;;;;17.77;7.20;;;;;;;13.86;55.44;96349.34;5037996;28;20028;-80
2022/10/06 09:49:21;;;;;;;19.92;7.88;;;;;;;14.74;54.54;96368.53;5034630;28;20187;-79
2022/10/06 09:52:11;;;;;;;12.07;6.90;;;;;;;15.94;51.64;96365.63;5040964;28;20028;-78
2022/10/06 09:54:40;;;;;;;19.90;8.10;;;;;;;17.11;47.99;96360.00;5034770;28;20029;-82
2022/10/06 09:57:21;;;;;;;16.35;6.75;;;;;;;18.02;44.66;96310.50;5034687;28;20066;-79
2022/10/06 09:59:47;;;;;;;22.90;7.30;;;;;;;19.36;42.19;96332.78;5033343;28;20111;-80
2022/10/06 10:02:36;;;;;;;10.50;6.35;;;;;;;20.67;39.41;96350.50;5042081;28;20421;-80
2022/10/06 10:05:05;;;;;;;12.10;6.53;;;;;;;21.51;36.44;96306.41;5038583;28;20497;-78
2022/10/06 10:07:33;;;;;;;17.65;7.00;;;;;;;22.71;35.42;96346.09;5028563;28;20126;-82
2022/10/06 10:10:19;;;;;;;15.88;5.93;;;;;;;23.56;34.12;96335.25;5034437;28;20052;-80
2022/10/06 10:12:53;;;;;;;22.20;6.55;;;;;;;23.81;32.24;96304.47;5035382;28;20055;-82
2022/10/06 10:15:19;;;;;;;13.30;6.28;;;;;;;24.54;32.21;96345.50;5036328;28;20446;-83
2022/10/06 10:18:04;;;;;;;12.77;6.05;;;;;;;25.14;31.60;96339.41;5029319;28;20262;-80
2022/10/06 10:20:42;;;;;;;17.73;7.20;;;;;;;24.98;30.45;96336.56;5030542;28;20259;-79
2022/10/06 10:23:08;;;;;;;20.15;6.80;;;;;;;25.28;30.03;96333.66;5014313;28;20794;-78
2022/10/06 10:25:43;;;;;;;15.57;6.57;;;;;;;25.29;29.67;96330.59;5038203;28;20028;-77
2022/10/06 10:28:56;;;;;;;12.80;6.25;;;;;;;25.73;29.61;96328.88;5030781;28;20033;-76
2022/10/06 10:31:56;;;;;;;14.65;5.78;;;;;;;25.04;28.44;96271.22;4992757;28;20038;-76
2022/10/06 10:34:45;;;;;;;11.73;6.18;;;;;;;25.50;28.64;96318.81;4977570;28;20136;-75
2022/10/06 10:37:16;;;;;;;13.77;5.90;;;;;;;24.94;28.60;96238.00;5032738;28;20158;-76
2022/10/06 10:39:47;;;;;;;14.63;6.10;;;;;;;24.69;28.67;96247.22;5032187;28;20043;-76
2022/10/06 10:42:20;;;;;;;19.33;6.13;;;;;;;25.02;28.32;96274.28;5029563;28;20033;-77
2022/10/06 10:44:55;;;;;;;13.90;6.38;;;;;;;24.92;28.19;96310.00;5037510;28;20097;-77
2022/10/06 10:47:35;;;;;;;12.95;6.97;;;;;;;24.12;30.01;96313.00;5034290;28;20372;-77
2022/10/06 10:50:15;;;;;;;17.98;7.10;;;;;;;23.88;29.34;96304.75;5028779;28;20311;-77
2022/10/06 10:52:45;;;;;;;15.40;6.45;;;;;;;23.61;29.29;96241.09;5034037;28;20025;-77
2022/10/06 10:55:44;;;;;;;13.02;6.40;;;;;;;23.73;29.47;96272.84;5032023;28;20025;-76
2022/10/06 10:58:17;;;;;;;14.93;6.93;;;;;;;23.58;28.16;96241.72;5023756;28;20659;-76
2022/10/06 11:00:49;;;;;;;17.08;6.43;;;;;;;23.56;27.92;96219.63;5025867;28;20039;-76
2022/10/06 11:03:14;;;;;;;10.52;5.30;;;;;;;23.80;27.60;96290.13;5036228;28;20025;-76
2022/10/06 11:06:11;;;;;;;16.25;5.68;;;;;;;23.85;27.59;96286.47;5031113;28;20667;-77
2022/10/06 11:08:46;;;;;;;13.43;5.53;;;;;;;24.03;28.07;96281.69;5031668;28;20735;-80
2022/10/06 11:11:23;;;;;;;14.13;6.07;;;;;;;23.19;28.79;96221.28;5031315;28;20037;-79
2022/10/06 11:13:53;;;;;;;8.57;5.22;;;;;;;23.45;28.77;96248.19;5021844;28;20506;-78
2022/10/06 11:16:35;;;;;;;8.70;5.10;;;;;;;23.97;27.40;96270.25;5020961;28;20091;-78
2022/10/06 11:19:46;;;;;;;15.45;5.53;;;;;;;24.00;27.25;96268.78;5033742;28;20091;-78
2022/10/06 11:22:25;;;;;;;10.10;5.07;;;;;;;24.26;27.17;96272.06;5019926;28;20222;-78
2022/10/06 11:25:12;;;;;;;8.13;4.32;;;;;;;23.87;25.34;96265.25;5024164;28;20325;-78
2022/10/06 11:28:21;;;;;;;9.25;3.63;;;;;;;23.97;26.21;96261.31;5031062;28;20045;-78
2022/10/06 11:31:08;;;;;;;9.38;3.25;;;;;;;24.48;25.93;96247.31;5026857;28;20051;-78
2022/10/06 11:33:48;;;;;;;8.02;3.53;;;;;;;24.44;25.96;96230.09;5029077;28;20041;-77
2022/10/06 11:36:22;;;;;;;6.10;3.00;;;;;;;24.55;25.39;96241.31;5038485;28;21585;-77
2022/10/06 11:39:00;;;;;;;4.47;2.80;;;;;;;24.70;25.27;96251.50;5031964;28;20037;-78
2022/10/06 11:41:29;;;;;;;11.13;3.00;;;;;;;24.31;23.54;96244.78;5030013;28;20045;-78
2022/10/06 11:44:31;;;;;;;6.32;2.63;;;;;;;24.16;24.63;96243.47;5032863;28;20094;-76
2022/10/06 11:47:01;;;;;;;8.48;2.63;;;;;;;23.37;25.19;96117.19;5031271;28;20073;-77
2022/10/06 11:49:27;;;;;;;8.10;3.17;;;;;;;24.18;24.37;96227.63;5036455;28;20706;-77
2022/10/06 11:51:52;;;;;;;7.40;2.83;;;;;;;23.64;25.20;96118.56;5030653;28;20283;-78
2022/10/06 11:54:43;;;;;;;5.90;2.92;;;;;;;24.44;24.74;96230.09;5035922;28;20329;-79
2022/10/06 11:57:21;;;;;;;8.07;3.65;;;;;;;24.71;25.31;96225.97;5038023;28;20048;-80
2022/10/06 11:59:54;;;;;;;6.47;2.60;;;;;;;24.21;24.33;96144.91;5036496;28;20460;-79